sensor_id;sensor_type;location;lat;lon;timestamp;P1;durP1;ratioP1;P2;durP2;ratioP2
23614;SDS011;11985;49.404;7.734;2023-03-03T00:01:01;20.67;;;9.25;;
23614;SDS011;11985;49.404;7.734;2023-03-03T00:06:03;28.33;;;10.98;;
23614;SDS011;11985;49.404;7.734;2023-03-03T00:11:05;24.00;;;10.57;;
23614;SDS011;11985;49.404;7.734;2023-03-03T00:16:16;23.80;;;8.90;;
23614;SDS011;11985;49.404;7.734;2023-03-03T00:21:29;25.35;;;10.32;;
23614;SDS011;11985;49.404;7.734;2023-03-03T00:26:34;18.83;;;9.63;;
23614;SDS011;11985;49.404;7.734;2023-03-03T00:31:39;24.90;;;10.02;;
23614;SDS011;11985;49.404;7.734;2023-03-03T00:36:40;28.98;;;10.95;;
23614;SDS011;11985;49.404;7.734;2023-03-03T00:41:42;23.20;;;10.73;;
23614;SDS011;11985;49.404;7.734;2023-03-03T00:46:45;22.58;;;10.55;;
23614;SDS011;11985;49.404;7.734;2023-03-03T00:51:47;27.02;;;10.57;;
23614;SDS011;11985;49.404;7.734;2023-03-03T00:56:48;23.67;;;10.30;;
23614;SDS011;11985;49.404;7.734;2023-03-03T01:01:52;32.28;;;10.20;;
23614;SDS011;11985;49.404;7.734;2023-03-03T01:06:53;25.05;;;10.18;;
23614;SDS011;11985;49.404;7.734;2023-03-03T01:11:55;22.00;;;9.73;;
23614;SDS011;11985;49.404;7.734;2023-03-03T01:16:58;21.10;;;8.68;;
23614;SDS011;11985;49.404;7.734;2023-03-03T01:22:00;18.40;;;8.13;;
23614;SDS011;11985;49.404;7.734;2023-03-03T01:27:02;21.75;;;8.30;;
23614;SDS011;11985;49.404;7.734;2023-03-03T01:32:05;17.38;;;7.68;;
23614;SDS011;11985;49.404;7.734;2023-03-03T01:37:06;17.40;;;8.02;;
23614;SDS011;11985;49.404;7.734;2023-03-03T01:42:08;20.60;;;7.97;;
23614;SDS011;11985;49.404;7.734;2023-03-03T01:47:11;17.48;;;7.22;;
23614;SDS011;11985;49.404;7.734;2023-03-03T01:52:18;20.20;;;7.78;;
23614;SDS011;11985;49.404;7.734;2023-03-03T01:57:27;18.17;;;7.28;;
23614;SDS011;11985;49.404;7.734;2023-03-03T02:02:34;17.60;;;7.43;;
23614;SDS011;11985;49.404;7.734;2023-03-03T02:07:37;19.83;;;7.13;;
23614;SDS011;11985;49.404;7.734;2023-03-03T02:12:39;17.40;;;7.10;;
23614;SDS011;11985;49.404;7.734;2023-03-03T02:17:44;20.23;;;7.37;;
23614;SDS011;11985;49.404;7.734;2023-03-03T02:22:48;16.60;;;7.77;;
23614;SDS011;11985;49.404;7.734;2023-03-03T02:27:55;18.38;;;7.13;;
23614;SDS011;11985;49.404;7.734;2023-03-03T02:32:56;15.95;;;7.57;;
23614;SDS011;11985;49.404;7.734;2023-03-03T02:37:59;20.48;;;7.82;;
23614;SDS011;11985;49.404;7.734;2023-03-03T02:43:08;23.30;;;7.78;;
23614;SDS011;11985;49.404;7.734;2023-03-03T02:48:11;16.08;;;8.55;;
23614;SDS011;11985;49.404;7.734;2023-03-03T02:53:13;20.15;;;7.90;;
23614;SDS011;11985;49.404;7.734;2023-03-03T02:58:16;20.85;;;8.32;;
23614;SDS011;11985;49.404;7.734;2023-03-03T03:03:18;19.42;;;8.35;;
23614;SDS011;11985;49.404;7.734;2023-03-03T03:08:19;20.00;;;7.88;;
23614;SDS011;11985;49.404;7.734;2023-03-03T03:13:22;17.52;;;8.98;;
23614;SDS011;11985;49.404;7.734;2023-03-03T03:18:25;20.02;;;7.95;;
23614;SDS011;11985;49.404;7.734;2023-03-03T03:23:27;23.17;;;8.68;;
23614;SDS011;11985;49.404;7.734;2023-03-03T03:28:30;20.90;;;8.30;;
23614;SDS011;11985;49.404;7.734;2023-03-03T03:33:32;15.93;;;7.75;;
23614;SDS011;11985;49.404;7.734;2023-03-03T03:38:36;18.17;;;8.18;;
23614;SDS011;11985;49.404;7.734;2023-03-03T03:43:39;17.92;;;7.80;;
23614;SDS011;11985;49.404;7.734;2023-03-03T03:48:41;18.92;;;8.20;;
23614;SDS011;11985;49.404;7.734;2023-03-03T03:53:42;17.52;;;7.88;;
23614;SDS011;11985;49.404;7.734;2023-03-03T03:58:46;18.85;;;8.52;;
23614;SDS011;11985;49.404;7.734;2023-03-03T04:03:47;14.48;;;7.28;;
23614;SDS011;11985;49.404;7.734;2023-03-03T04:08:49;19.38;;;8.60;;
23614;SDS011;11985;49.404;7.734;2023-03-03T04:13:52;17.98;;;8.65;;
23614;SDS011;11985;49.404;7.734;2023-03-03T04:18:54;19.80;;;9.10;;
23614;SDS011;11985;49.404;7.734;2023-03-03T04:23:55;19.33;;;9.48;;
23614;SDS011;11985;49.404;7.734;2023-03-03T04:28:58;18.92;;;9.38;;
23614;SDS011;11985;49.404;7.734;2023-03-03T04:34:00;19.05;;;8.80;;
23614;SDS011;11985;49.404;7.734;2023-03-03T04:39:02;17.35;;;8.70;;
23614;SDS011;11985;49.404;7.734;2023-03-03T04:44:05;18.52;;;9.48;;
23614;SDS011;11985;49.404;7.734;2023-03-03T04:49:06;19.13;;;9.55;;
23614;SDS011;11985;49.404;7.734;2023-03-03T04:54:08;20.63;;;9.45;;
23614;SDS011;11985;49.404;7.734;2023-03-03T04:59:11;23.08;;;11.15;;
23614;SDS011;11985;49.404;7.734;2023-03-03T05:04:13;22.40;;;10.27;;
23614;SDS011;11985;49.404;7.734;2023-03-03T05:09:14;21.13;;;10.07;;
23614;SDS011;11985;49.404;7.734;2023-03-03T05:14:17;23.98;;;11.25;;
23614;SDS011;11985;49.404;7.734;2023-03-03T05:19:19;23.10;;;10.57;;
23614;SDS011;11985;49.404;7.734;2023-03-03T05:24:20;21.48;;;10.25;;
23614;SDS011;11985;49.404;7.734;2023-03-03T05:29:24;22.45;;;10.90;;
23614;SDS011;11985;49.404;7.734;2023-03-03T05:34:26;19.63;;;8.17;;
23614;SDS011;11985;49.404;7.734;2023-03-03T05:39:28;20.77;;;10.18;;
23614;SDS011;11985;49.404;7.734;2023-03-03T05:44:31;19.73;;;9.85;;
23614;SDS011;11985;49.404;7.734;2023-03-03T05:49:33;22.88;;;9.25;;
23614;SDS011;11985;49.404;7.734;2023-03-03T05:54:39;20.40;;;9.70;;
23614;SDS011;11985;49.404;7.734;2023-03-03T05:59:42;19.52;;;9.38;;
23614;SDS011;11985;49.404;7.734;2023-03-03T06:04:44;23.40;;;9.60;;
23614;SDS011;11985;49.404;7.734;2023-03-03T06:09:45;18.30;;;8.90;;
23614;SDS011;11985;49.404;7.734;2023-03-03T06:14:48;23.85;;;9.55;;
23614;SDS011;11985;49.404;7.734;2023-03-03T06:19:50;20.35;;;9.45;;
23614;SDS011;11985;49.404;7.734;2023-03-03T06:24:52;19.20;;;9.18;;
23614;SDS011;11985;49.404;7.734;2023-03-03T06:29:54;19.48;;;9.20;;
23614;SDS011;11985;49.404;7.734;2023-03-03T06:34:56;19.17;;;10.05;;
23614;SDS011;11985;49.404;7.734;2023-03-03T06:39:58;27.08;;;10.18;;
23614;SDS011;11985;49.404;7.734;2023-03-03T06:45:01;21.10;;;8.93;;
23614;SDS011;11985;49.404;7.734;2023-03-03T06:50:02;21.63;;;9.43;;
23614;SDS011;11985;49.404;7.734;2023-03-03T06:55:09;19.75;;;10.00;;
23614;SDS011;11985;49.404;7.734;2023-03-03T07:00:16;20.15;;;9.70;;
23614;SDS011;11985;49.404;7.734;2023-03-03T07:05:20;23.10;;;11.45;;
23614;SDS011;11985;49.404;7.734;2023-03-03T07:10:25;27.50;;;13.17;;
23614;SDS011;11985;49.404;7.734;2023-03-03T07:15:31;45.40;;;14.80;;
23614;SDS011;11985;49.404;7.734;2023-03-03T07:20:35;37.17;;;17.08;;
23614;SDS011;11985;49.404;7.734;2023-03-03T07:25:40;39.00;;;17.42;;
23614;SDS011;11985;49.404;7.734;2023-03-03T07:30:43;36.22;;;17.02;;
23614;SDS011;11985;49.404;7.734;2023-03-03T07:35:45;44.83;;;18.83;;
23614;SDS011;11985;49.404;7.734;2023-03-03T07:40:47;45.22;;;20.70;;
23614;SDS011;11985;49.404;7.734;2023-03-03T07:45:51;53.45;;;22.35;;
23614;SDS011;11985;49.404;7.734;2023-03-03T07:50:54;44.45;;;19.05;;
23614;SDS011;11985;49.404;7.734;2023-03-03T07:55:57;47.75;;;22.48;;
23614;SDS011;11985;49.404;7.734;2023-03-03T08:06:37;51.25;;;22.88;;
23614;SDS011;11985;49.404;7.734;2023-03-03T08:11:46;46.20;;;22.38;;
23614;SDS011;11985;49.404;7.734;2023-03-03T08:16:53;51.05;;;22.88;;
23614;SDS011;11985;49.404;7.734;2023-03-03T08:21:58;50.65;;;22.33;;
23614;SDS011;11985;49.404;7.734;2023-03-03T08:27:03;48.05;;;21.42;;
23614;SDS011;11985;49.404;7.734;2023-03-03T08:32:06;58.25;;;23.40;;
23614;SDS011;11985;49.404;7.734;2023-03-03T08:37:08;40.33;;;19.85;;
23614;SDS011;11985;49.404;7.734;2023-03-03T08:42:09;39.35;;;19.42;;
23614;SDS011;11985;49.404;7.734;2023-03-03T08:47:12;45.75;;;19.65;;
23614;SDS011;11985;49.404;7.734;2023-03-03T08:52:14;38.78;;;18.70;;
23614;SDS011;11985;49.404;7.734;2023-03-03T08:57:15;44.15;;;19.45;;
23614;SDS011;11985;49.404;7.734;2023-03-03T09:02:19;48.72;;;20.35;;
23614;SDS011;11985;49.404;7.734;2023-03-03T09:07:20;39.10;;;18.77;;
23614;SDS011;11985;49.404;7.734;2023-03-03T09:12:24;41.50;;;20.52;;
23614;SDS011;11985;49.404;7.734;2023-03-03T09:17:33;42.45;;;20.08;;
23614;SDS011;11985;49.404;7.734;2023-03-03T09:22:37;44.13;;;20.30;;
23614;SDS011;11985;49.404;7.734;2023-03-03T09:27:38;46.22;;;20.75;;
23614;SDS011;11985;49.404;7.734;2023-03-03T09:32:42;49.13;;;21.00;;
23614;SDS011;11985;49.404;7.734;2023-03-03T09:37:43;43.80;;;20.40;;
23614;SDS011;11985;49.404;7.734;2023-03-03T09:42:54;42.17;;;19.38;;
23614;SDS011;11985;49.404;7.734;2023-03-03T09:48:10;38.97;;;19.83;;
23614;SDS011;11985;49.404;7.734;2023-03-03T09:53:29;46.40;;;22.20;;
23614;SDS011;11985;49.404;7.734;2023-03-03T09:58:45;42.33;;;18.60;;
23614;SDS011;11985;49.404;7.734;2023-03-03T10:04:08;45.42;;;20.35;;
23614;SDS011;11985;49.404;7.734;2023-03-03T10:09:33;47.58;;;21.42;;
23614;SDS011;11985;49.404;7.734;2023-03-03T10:14:50;40.88;;;19.95;;
23614;SDS011;11985;49.404;7.734;2023-03-03T10:20:11;44.13;;;21.05;;
23614;SDS011;11985;49.404;7.734;2023-03-03T10:25:25;45.00;;;21.42;;
23614;SDS011;11985;49.404;7.734;2023-03-03T10:30:45;42.00;;;20.58;;
23614;SDS011;11985;49.404;7.734;2023-03-03T10:35:58;42.03;;;20.13;;
23614;SDS011;11985;49.404;7.734;2023-03-03T10:52:32;50.33;;;23.48;;
23614;SDS011;11985;49.404;7.734;2023-03-03T10:57:40;41.67;;;21.40;;
23614;SDS011;11985;49.404;7.734;2023-03-03T11:02:55;44.35;;;22.00;;
23614;SDS011;11985;49.404;7.734;2023-03-03T11:08:16;48.53;;;22.52;;
23614;SDS011;11985;49.404;7.734;2023-03-03T11:13:25;42.92;;;20.50;;
23614;SDS011;11985;49.404;7.734;2023-03-03T11:18:41;42.42;;;22.05;;
23614;SDS011;11985;49.404;7.734;2023-03-03T11:23:57;45.60;;;21.70;;
23614;SDS011;11985;49.404;7.734;2023-03-03T11:29:09;41.55;;;19.70;;
23614;SDS011;11985;49.404;7.734;2023-03-03T11:34:25;49.77;;;21.40;;
23614;SDS011;11985;49.404;7.734;2023-03-03T11:39:44;42.70;;;22.10;;
23614;SDS011;11985;49.404;7.734;2023-03-03T11:44:47;43.35;;;21.80;;
23614;SDS011;11985;49.404;7.734;2023-03-03T11:49:53;45.35;;;21.40;;
23614;SDS011;11985;49.404;7.734;2023-03-03T11:55:03;44.03;;;20.92;;
23614;SDS011;11985;49.404;7.734;2023-03-03T12:00:17;42.75;;;21.88;;
23614;SDS011;11985;49.404;7.734;2023-03-03T12:05:30;40.97;;;20.38;;
23614;SDS011;11985;49.404;7.734;2023-03-03T12:10:42;41.70;;;20.63;;
23614;SDS011;11985;49.404;7.734;2023-03-03T12:15:48;41.67;;;20.83;;
23614;SDS011;11985;49.404;7.734;2023-03-03T12:21:00;47.35;;;21.50;;
23614;SDS011;11985;49.404;7.734;2023-03-03T12:26:16;47.00;;;22.10;;
23614;SDS011;11985;49.404;7.734;2023-03-03T12:31:31;38.88;;;20.17;;
23614;SDS011;11985;49.404;7.734;2023-03-03T12:36:44;41.80;;;20.33;;
23614;SDS011;11985;49.404;7.734;2023-03-03T12:47:05;45.45;;;22.13;;
23614;SDS011;11985;49.404;7.734;2023-03-03T12:52:20;44.50;;;20.33;;
23614;SDS011;11985;49.404;7.734;2023-03-03T12:57:34;41.58;;;19.55;;
23614;SDS011;11985;49.404;7.734;2023-03-03T13:02:44;44.78;;;21.17;;
23614;SDS011;11985;49.404;7.734;2023-03-03T13:08:01;37.53;;;18.13;;
23614;SDS011;11985;49.404;7.734;2023-03-03T13:13:25;43.03;;;20.88;;
23614;SDS011;11985;49.404;7.734;2023-03-03T13:18:36;36.85;;;17.88;;
23614;SDS011;11985;49.404;7.734;2023-03-03T13:23:50;40.58;;;19.17;;
23614;SDS011;11985;49.404;7.734;2023-03-03T13:29:03;55.72;;;26.52;;
23614;SDS011;11985;49.404;7.734;2023-03-03T13:34:16;41.63;;;21.75;;
23614;SDS011;11985;49.404;7.734;2023-03-03T13:39:26;46.33;;;22.40;;
23614;SDS011;11985;49.404;7.734;2023-03-03T13:44:35;41.00;;;20.15;;
23614;SDS011;11985;49.404;7.734;2023-03-03T13:49:44;39.30;;;19.38;;
23614;SDS011;11985;49.404;7.734;2023-03-03T13:55:00;41.47;;;20.77;;
23614;SDS011;11985;49.404;7.734;2023-03-03T14:00:15;39.83;;;19.08;;
23614;SDS011;11985;49.404;7.734;2023-03-03T14:05:29;40.05;;;19.42;;
23614;SDS011;11985;49.404;7.734;2023-03-03T14:10:40;42.45;;;17.55;;
23614;SDS011;11985;49.404;7.734;2023-03-03T14:15:50;37.58;;;18.30;;
23614;SDS011;11985;49.404;7.734;2023-03-03T14:20:58;31.80;;;16.17;;
23614;SDS011;11985;49.404;7.734;2023-03-03T14:26:07;40.03;;;17.73;;
23614;SDS011;11985;49.404;7.734;2023-03-03T14:31:15;32.88;;;17.80;;
23614;SDS011;11985;49.404;7.734;2023-03-03T14:36:24;38.28;;;19.08;;
23614;SDS011;11985;49.404;7.734;2023-03-03T14:41:35;33.00;;;17.52;;
23614;SDS011;11985;49.404;7.734;2023-03-03T14:46:44;33.10;;;16.77;;
23614;SDS011;11985;49.404;7.734;2023-03-03T14:51:46;33.13;;;18.10;;
23614;SDS011;11985;49.404;7.734;2023-03-03T14:56:54;35.25;;;18.90;;
23614;SDS011;11985;49.404;7.734;2023-03-03T15:07:32;36.70;;;16.25;;
23614;SDS011;11985;49.404;7.734;2023-03-03T15:12:36;35.47;;;16.80;;
23614;SDS011;11985;49.404;7.734;2023-03-03T15:17:42;34.08;;;17.75;;
23614;SDS011;11985;49.404;7.734;2023-03-03T15:22:54;35.63;;;17.13;;
23614;SDS011;11985;49.404;7.734;2023-03-03T15:28:14;33.33;;;17.67;;
23614;SDS011;11985;49.404;7.734;2023-03-03T15:33:27;35.33;;;17.05;;
23614;SDS011;11985;49.404;7.734;2023-03-03T15:38:42;33.80;;;15.40;;
23614;SDS011;11985;49.404;7.734;2023-03-03T15:49:01;33.92;;;15.80;;
23614;SDS011;11985;49.404;7.734;2023-03-03T15:54:17;35.67;;;17.35;;
23614;SDS011;11985;49.404;7.734;2023-03-03T15:59:51;35.53;;;17.80;;
23614;SDS011;11985;49.404;7.734;2023-03-03T16:05:11;30.23;;;15.13;;
23614;SDS011;11985;49.404;7.734;2023-03-03T16:10:18;29.95;;;15.25;;
23614;SDS011;11985;49.404;7.734;2023-03-03T16:15:28;30.73;;;17.63;;
23614;SDS011;11985;49.404;7.734;2023-03-03T16:20:41;31.05;;;15.90;;
23614;SDS011;11985;49.404;7.734;2023-03-03T16:25:57;33.00;;;17.80;;
23614;SDS011;11985;49.404;7.734;2023-03-03T16:31:05;32.65;;;16.95;;
23614;SDS011;11985;49.404;7.734;2023-03-03T16:36:16;28.60;;;16.35;;
23614;SDS011;11985;49.404;7.734;2023-03-03T16:41:28;32.38;;;16.38;;
23614;SDS011;11985;49.404;7.734;2023-03-03T16:46:43;40.72;;;18.13;;
23614;SDS011;11985;49.404;7.734;2023-03-03T16:51:49;33.75;;;18.60;;
23614;SDS011;11985;49.404;7.734;2023-03-03T16:56:59;34.72;;;18.23;;
23614;SDS011;11985;49.404;7.734;2023-03-03T17:02:13;38.20;;;17.98;;
23614;SDS011;11985;49.404;7.734;2023-03-03T17:07:30;39.45;;;18.02;;
23614;SDS011;11985;49.404;7.734;2023-03-03T17:12:53;33.53;;;16.48;;
23614;SDS011;11985;49.404;7.734;2023-03-03T17:18:11;31.67;;;15.93;;
23614;SDS011;11985;49.404;7.734;2023-03-03T17:28:47;36.42;;;15.35;;
23614;SDS011;11985;49.404;7.734;2023-03-03T17:33:59;28.08;;;14.27;;
23614;SDS011;11985;49.404;7.734;2023-03-03T17:39:15;28.88;;;13.73;;
23614;SDS011;11985;49.404;7.734;2023-03-03T17:44:47;30.88;;;14.15;;
23614;SDS011;11985;49.404;7.734;2023-03-03T17:49:56;29.17;;;15.10;;
23614;SDS011;11985;49.404;7.734;2023-03-03T18:00:50;27.92;;;13.60;;
23614;SDS011;11985;49.404;7.734;2023-03-03T18:06:09;28.67;;;14.05;;
23614;SDS011;11985;49.404;7.734;2023-03-03T18:11:23;30.00;;;13.68;;
23614;SDS011;11985;49.404;7.734;2023-03-03T18:16:34;30.58;;;13.98;;
23614;SDS011;11985;49.404;7.734;2023-03-03T18:21:52;30.27;;;12.80;;
23614;SDS011;11985;49.404;7.734;2023-03-03T18:27:13;30.63;;;14.80;;
23614;SDS011;11985;49.404;7.734;2023-03-03T18:32:38;30.23;;;15.07;;
23614;SDS011;11985;49.404;7.734;2023-03-03T18:37:43;32.20;;;15.07;;
23614;SDS011;11985;49.404;7.734;2023-03-03T18:42:46;31.60;;;14.98;;
23614;SDS011;11985;49.404;7.734;2023-03-03T18:48:02;33.60;;;14.18;;
23614;SDS011;11985;49.404;7.734;2023-03-03T18:58:32;37.75;;;16.63;;
23614;SDS011;11985;49.404;7.734;2023-03-03T19:14:19;47.00;;;19.75;;
23614;SDS011;11985;49.404;7.734;2023-03-03T19:19:31;44.65;;;18.55;;
23614;SDS011;11985;49.404;7.734;2023-03-03T19:24:34;38.35;;;17.65;;
23614;SDS011;11985;49.404;7.734;2023-03-03T19:35:08;41.00;;;17.65;;
23614;SDS011;11985;49.404;7.734;2023-03-03T19:40:21;41.45;;;19.08;;
23614;SDS011;11985;49.404;7.734;2023-03-03T19:45:32;40.30;;;19.20;;
23614;SDS011;11985;49.404;7.734;2023-03-03T19:50:48;44.15;;;20.52;;
23614;SDS011;11985;49.404;7.734;2023-03-03T19:55:58;48.35;;;21.85;;
23614;SDS011;11985;49.404;7.734;2023-03-03T20:01:15;46.50;;;20.83;;
23614;SDS011;11985;49.404;7.734;2023-03-03T20:06:31;40.53;;;19.42;;
23614;SDS011;11985;49.404;7.734;2023-03-03T20:11:44;42.03;;;19.38;;
23614;SDS011;11985;49.404;7.734;2023-03-03T20:17:01;45.00;;;20.92;;
23614;SDS011;11985;49.404;7.734;2023-03-03T20:22:17;48.03;;;21.73;;
23614;SDS011;11985;49.404;7.734;2023-03-03T20:27:28;51.35;;;22.10;;
23614;SDS011;11985;49.404;7.734;2023-03-03T20:32:46;52.05;;;22.48;;
23614;SDS011;11985;49.404;7.734;2023-03-03T20:38:02;50.20;;;22.20;;
23614;SDS011;11985;49.404;7.734;2023-03-03T20:43:15;54.95;;;23.08;;
23614;SDS011;11985;49.404;7.734;2023-03-03T20:48:34;64.30;;;24.00;;
23614;SDS011;11985;49.404;7.734;2023-03-03T20:53:48;53.63;;;23.52;;
23614;SDS011;11985;49.404;7.734;2023-03-03T20:59:01;56.78;;;25.58;;
23614;SDS011;11985;49.404;7.734;2023-03-03T21:04:18;60.35;;;25.23;;
23614;SDS011;11985;49.404;7.734;2023-03-03T21:09:26;62.17;;;25.70;;
23614;SDS011;11985;49.404;7.734;2023-03-03T21:14:30;63.75;;;27.05;;
23614;SDS011;11985;49.404;7.734;2023-03-03T21:19:36;64.55;;;25.20;;
23614;SDS011;11985;49.404;7.734;2023-03-03T21:24:47;61.45;;;26.23;;
23614;SDS011;11985;49.404;7.734;2023-03-03T21:30:00;58.03;;;25.67;;
23614;SDS011;11985;49.404;7.734;2023-03-03T21:35:04;59.63;;;24.92;;
23614;SDS011;11985;49.404;7.734;2023-03-03T21:40:11;61.70;;;26.45;;
23614;SDS011;11985;49.404;7.734;2023-03-03T21:45:14;69.18;;;27.55;;
23614;SDS011;11985;49.404;7.734;2023-03-03T21:50:20;68.45;;;28.70;;
23614;SDS011;11985;49.404;7.734;2023-03-03T21:55:22;66.93;;;27.48;;
23614;SDS011;11985;49.404;7.734;2023-03-03T22:00:23;73.63;;;29.50;;
23614;SDS011;11985;49.404;7.734;2023-03-03T22:05:27;64.28;;;27.40;;
23614;SDS011;11985;49.404;7.734;2023-03-03T22:10:29;71.45;;;30.05;;
23614;SDS011;11985;49.404;7.734;2023-03-03T22:15:31;74.55;;;28.23;;
23614;SDS011;11985;49.404;7.734;2023-03-03T22:20:34;74.82;;;29.70;;
23614;SDS011;11985;49.404;7.734;2023-03-03T22:25:36;82.60;;;30.88;;
23614;SDS011;11985;49.404;7.734;2023-03-03T22:30:38;80.13;;;30.60;;
23614;SDS011;11985;49.404;7.734;2023-03-03T22:35:41;78.85;;;29.90;;
23614;SDS011;11985;49.404;7.734;2023-03-03T22:40:43;81.45;;;30.80;;
23614;SDS011;11985;49.404;7.734;2023-03-03T22:45:44;86.15;;;31.90;;
23614;SDS011;11985;49.404;7.734;2023-03-03T22:50:47;77.28;;;30.00;;
23614;SDS011;11985;49.404;7.734;2023-03-03T22:55:49;74.65;;;29.27;;
23614;SDS011;11985;49.404;7.734;2023-03-03T23:00:51;86.03;;;31.25;;
23614;SDS011;11985;49.404;7.734;2023-03-03T23:05:55;77.72;;;31.20;;
23614;SDS011;11985;49.404;7.734;2023-03-03T23:10:56;81.57;;;29.52;;
23614;SDS011;11985;49.404;7.734;2023-03-03T23:15:58;77.72;;;29.65;;
23614;SDS011;11985;49.404;7.734;2023-03-03T23:21:02;87.18;;;31.55;;
23614;SDS011;11985;49.404;7.734;2023-03-03T23:26:04;81.38;;;31.00;;
23614;SDS011;11985;49.404;7.734;2023-03-03T23:31:05;92.30;;;30.73;;
23614;SDS011;11985;49.404;7.734;2023-03-03T23:36:09;88.30;;;30.48;;
23614;SDS011;11985;49.404;7.734;2023-03-03T23:41:10;83.07;;;30.13;;
23614;SDS011;11985;49.404;7.734;2023-03-03T23:46:12;91.25;;;29.75;;
23614;SDS011;11985;49.404;7.734;2023-03-03T23:51:15;84.22;;;28.77;;
23614;SDS011;11985;49.404;7.734;2023-03-03T23:56:17;93.38;;;30.85;;
